createdAt,value
2018-08-04T00:01:33.642Z,5.73
2018-08-04T00:04:01.393Z,6.70
2018-08-04T00:06:32.325Z,6.97
2018-08-04T00:09:00.058Z,5.37
2018-08-04T00:11:27.844Z,6.30
2018-08-04T00:13:55.602Z,5.23
2018-08-04T00:16:23.290Z,7.27
2018-08-04T00:18:51.308Z,7.27
2018-08-04T00:21:18.838Z,8.30
2018-08-04T00:23:46.577Z,8.80
2018-08-04T00:26:14.339Z,9.30
2018-08-04T00:28:41.964Z,8.60
2018-08-04T00:31:09.978Z,9.00
2018-08-04T00:33:38.113Z,8.00
2018-08-04T00:36:05.853Z,8.50
2018-08-04T00:38:33.469Z,8.93
2018-08-04T00:41:01.129Z,9.63
2018-08-04T00:43:28.824Z,10.40
2018-08-04T00:45:56.791Z,11.50
2018-08-04T00:48:24.627Z,9.60
2018-08-04T00:50:52.439Z,14.37
2018-08-04T00:53:20.125Z,11.70
2018-08-04T00:55:48.304Z,12.47
2018-08-04T00:58:16.039Z,13.50
2018-08-04T01:00:43.654Z,12.20
2018-08-04T01:03:11.475Z,13.87
2018-08-04T01:05:39.250Z,13.40
2018-08-04T01:08:07.196Z,13.80
2018-08-04T01:10:34.891Z,14.67
2018-08-04T01:13:02.859Z,12.53
2018-08-04T01:15:30.774Z,14.73
2018-08-04T01:17:58.594Z,16.93
2018-08-04T01:20:26.400Z,20.07
2018-08-04T01:22:54.119Z,15.20
2018-08-04T01:25:21.843Z,13.80
2018-08-04T01:27:49.591Z,12.70
2018-08-04T01:30:17.641Z,14.73
2018-08-04T01:32:45.329Z,14.90
2018-08-04T01:35:13.119Z,14.40
2018-08-04T01:37:40.897Z,13.40
2018-08-04T01:40:08.759Z,13.97
2018-08-04T01:42:36.530Z,16.30
2018-08-04T01:45:04.276Z,16.80
2018-08-04T01:47:31.931Z,15.07
2018-08-04T01:49:59.787Z,14.80
2018-08-04T01:52:27.510Z,13.93
2018-08-04T01:54:55.986Z,16.03
2018-08-04T01:57:23.975Z,17.97
2018-08-04T01:59:51.885Z,15.43
2018-08-04T02:02:19.568Z,18.50
2018-08-04T02:04:47.353Z,18.33
2018-08-04T02:07:15.727Z,18.73
2018-08-04T02:09:43.501Z,21.63
2018-08-04T02:12:11.270Z,16.67
2018-08-04T02:14:38.968Z,17.60
2018-08-04T02:17:06.994Z,18.20
2018-08-04T02:19:34.734Z,16.83
2018-08-04T02:22:02.586Z,17.20
2018-08-04T02:24:30.428Z,16.93
2018-08-04T02:26:58.155Z,15.50
2018-08-04T02:29:25.868Z,15.10
2018-08-04T02:31:53.868Z,19.83
2018-08-04T02:34:21.595Z,18.97
2018-08-04T02:36:49.409Z,17.70
2018-08-04T02:39:17.115Z,16.50
2018-08-04T02:41:44.822Z,19.20
2018-08-04T02:44:12.581Z,16.37
2018-08-04T02:46:40.366Z,14.43
2018-08-04T02:49:08.053Z,14.13
2018-08-04T02:51:35.598Z,16.83
2018-08-04T02:54:03.147Z,18.87
2018-08-04T02:56:30.723Z,16.27
2018-08-04T02:58:58.352Z,19.37
2018-08-04T03:01:25.870Z,18.63
2018-08-04T03:03:53.413Z,18.07
2018-08-04T03:06:21.086Z,14.73
2018-08-04T03:08:48.593Z,17.83
2018-08-04T03:11:16.152Z,17.60
2018-08-04T03:13:43.799Z,17.67
2018-08-04T03:16:11.332Z,16.73
2018-08-04T03:18:38.985Z,14.93
2018-08-04T03:21:06.550Z,17.40
2018-08-04T03:23:34.269Z,18.70
2018-08-04T03:26:01.959Z,17.03
2018-08-04T03:28:29.652Z,18.00
2018-08-04T03:30:57.179Z,16.70
2018-08-04T03:33:24.716Z,16.17
2018-08-04T03:35:52.282Z,20.30
2018-08-04T03:38:19.827Z,19.07
2018-08-04T03:40:47.402Z,19.70
2018-08-04T03:43:14.945Z,18.03
2018-08-04T03:45:42.560Z,21.03
2018-08-04T03:48:10.147Z,19.47
2018-08-04T03:50:37.667Z,20.20
2018-08-04T03:53:05.216Z,24.87
2018-08-04T03:55:32.729Z,23.53
2018-08-04T03:58:00.374Z,21.20
2018-08-04T04:00:28.008Z,24.43
2018-08-04T04:02:55.740Z,22.73
2018-08-04T04:05:23.295Z,26.23
2018-08-04T04:07:50.814Z,25.40
2018-08-04T04:10:18.346Z,27.07
2018-08-04T04:12:45.945Z,28.30
2018-08-04T04:15:13.569Z,26.87
2018-08-04T04:17:46.609Z,26.60
2018-08-04T04:20:15.075Z,26.63
2018-08-04T04:22:42.609Z,27.97
2018-08-04T04:25:10.143Z,24.00
2018-08-04T04:27:38.107Z,23.27
2018-08-04T04:30:05.818Z,22.50
2018-08-04T04:32:33.576Z,24.40
2018-08-04T04:35:01.139Z,23.30
2018-08-04T04:37:28.753Z,22.60
2018-08-04T04:39:56.349Z,24.03
2018-08-04T04:42:23.957Z,23.97
2018-08-04T04:44:51.557Z,23.87
2018-08-04T04:47:19.274Z,25.20
2018-08-04T04:49:46.928Z,25.50
2018-08-04T04:52:14.508Z,24.13
2018-08-04T04:54:42.051Z,23.27
2018-08-04T04:57:09.648Z,24.60
2018-08-04T04:59:37.337Z,23.97
2018-08-04T05:02:05.037Z,22.17
2018-08-04T05:04:32.489Z,21.27
2018-08-04T05:07:00.063Z,22.40
2018-08-04T05:09:27.660Z,20.37
2018-08-04T05:11:55.259Z,22.73
2018-08-04T05:14:22.831Z,21.97
2018-08-04T05:16:50.378Z,23.50
2018-08-04T05:19:17.876Z,22.57
2018-08-04T05:21:45.929Z,26.03
2018-08-04T05:24:13.827Z,25.93
2018-08-04T05:26:41.356Z,26.50
2018-08-04T05:29:08.952Z,25.50
2018-08-04T05:31:36.548Z,26.67
2018-08-04T05:34:04.240Z,24.43
2018-08-04T05:36:31.766Z,25.80
2018-08-04T05:38:59.764Z,26.57
2018-08-04T05:41:27.316Z,23.17
2018-08-04T05:43:54.928Z,25.20
2018-08-04T05:46:23.591Z,26.57
2018-08-04T05:48:52.981Z,26.30
2018-08-04T05:51:21.549Z,25.37
2018-08-04T05:53:49.210Z,28.10
2018-08-04T05:56:16.727Z,28.87
2018-08-04T05:58:44.462Z,25.57
2018-08-04T06:01:12.501Z,26.63
2018-08-04T06:03:40.195Z,26.50
2018-08-04T06:06:07.864Z,27.03
2018-08-04T06:08:35.656Z,28.47
2018-08-04T06:11:03.688Z,27.63
2018-08-04T06:13:31.780Z,28.47
2018-08-04T06:15:59.549Z,28.93
2018-08-04T06:18:27.220Z,26.07
2018-08-04T06:20:55.729Z,29.90
2018-08-04T06:23:23.916Z,30.77
2018-08-04T06:25:51.878Z,30.50
2018-08-04T06:28:19.892Z,28.23
2018-08-04T06:30:48.684Z,23.77
2018-08-04T06:33:16.932Z,22.47
2018-08-04T06:35:44.860Z,24.20
2018-08-04T06:38:12.822Z,24.33
2018-08-04T06:40:41.209Z,22.30
2018-08-04T06:43:09.269Z,23.73
2018-08-04T06:45:36.967Z,21.97
2018-08-04T06:48:04.969Z,21.40
2018-08-04T06:50:32.793Z,17.20
2018-08-04T06:53:00.534Z,16.07
2018-08-04T06:55:28.287Z,16.70
2018-08-04T06:57:56.345Z,17.30
2018-08-04T07:00:24.210Z,14.73
2018-08-04T07:02:52.348Z,15.90
2018-08-04T07:05:20.077Z,15.63
2018-08-04T07:07:48.192Z,16.77
2018-08-04T07:10:16.098Z,18.00
2018-08-04T07:12:44.282Z,14.23
2018-08-04T07:15:12.782Z,13.80
2018-08-04T07:17:40.980Z,13.97
2018-08-04T07:20:10.243Z,13.97
2018-08-04T07:22:38.440Z,13.87
2018-08-04T07:25:06.511Z,15.03
2018-08-04T07:27:34.576Z,16.80
2018-08-04T07:30:02.593Z,13.63
2018-08-04T07:32:31.334Z,14.07
2018-08-04T07:34:59.233Z,13.67
2018-08-04T07:37:27.082Z,14.43
2018-08-04T07:39:55.302Z,12.40
2018-08-04T07:42:23.218Z,10.93
2018-08-04T07:44:50.989Z,8.83
2018-08-04T07:47:18.523Z,6.93
2018-08-04T07:49:46.121Z,6.07
2018-08-04T07:52:13.727Z,7.13
2018-08-04T07:54:41.353Z,7.63
2018-08-04T07:57:08.933Z,5.87
2018-08-04T07:59:36.479Z,6.17
2018-08-04T08:02:04.143Z,6.07
2018-08-04T08:04:31.888Z,5.60
2018-08-04T08:06:59.619Z,6.27
2018-08-04T08:09:27.426Z,4.50
2018-08-04T08:11:54.990Z,4.13
2018-08-04T08:14:22.699Z,4.17
2018-08-04T08:16:50.267Z,4.40
2018-08-04T08:19:18.107Z,6.90
2018-08-04T08:21:45.662Z,4.27
2018-08-04T08:24:13.320Z,3.93
2018-08-04T08:26:40.917Z,6.37
2018-08-04T08:29:08.446Z,4.07
2018-08-04T08:31:36.093Z,5.20
2018-08-04T08:34:03.832Z,4.83
2018-08-04T08:36:31.603Z,4.27
2018-08-04T08:38:59.533Z,3.33
2018-08-04T08:41:28.715Z,4.87
2018-08-04T08:43:56.844Z,6.43
2018-08-04T08:46:24.743Z,5.37
2018-08-04T08:48:52.784Z,5.57
2018-08-04T08:51:20.696Z,5.77
2018-08-04T08:53:48.548Z,5.57
2018-08-04T08:56:16.174Z,4.43
2018-08-04T08:58:44.104Z,4.80
2018-08-04T09:01:11.854Z,6.33
2018-08-04T09:03:40.169Z,4.17
2018-08-04T09:06:08.120Z,4.67
2018-08-04T09:08:35.781Z,5.70
2018-08-04T09:11:03.608Z,4.20
2018-08-04T09:13:31.479Z,5.73
2018-08-04T09:15:59.298Z,5.50
2018-08-04T09:18:27.009Z,4.83
2018-08-04T09:20:54.954Z,3.30
2018-08-04T09:23:23.200Z,9.40
2018-08-04T09:25:51.088Z,3.47
2018-08-04T09:28:18.866Z,3.47
2018-08-04T09:30:46.669Z,5.47
2018-08-04T09:33:14.435Z,2.70
2018-08-04T09:35:42.297Z,3.33
2018-08-04T09:40:44.727Z,3.03
2018-08-04T09:43:12.552Z,3.70
2018-08-04T09:45:40.644Z,3.60
2018-08-04T09:48:08.301Z,2.40
2018-08-04T09:50:36.076Z,2.77
2018-08-04T09:53:03.837Z,2.63
2018-08-04T09:55:31.566Z,3.83
2018-08-04T09:58:16.474Z,2.93
2018-08-04T10:01:03.191Z,2.77
2018-08-04T10:03:31.266Z,3.10
2018-08-04T10:05:59.164Z,2.00
2018-08-04T10:08:26.827Z,2.60
2018-08-04T10:10:54.901Z,3.20
2018-08-04T10:13:22.767Z,2.80
2018-08-04T10:15:50.492Z,2.80
2018-08-04T10:18:18.353Z,2.90
2018-08-04T10:20:46.194Z,5.10
2018-08-04T10:23:13.923Z,2.23
2018-08-04T10:25:41.718Z,2.50
2018-08-04T10:28:09.645Z,3.70
2018-08-04T10:30:37.974Z,4.20
2018-08-04T10:33:05.852Z,2.90
2018-08-04T10:35:33.788Z,2.20
2018-08-04T10:38:01.662Z,3.47
2018-08-04T10:40:29.589Z,2.50
2018-08-04T10:42:57.501Z,2.47
2018-08-04T10:45:25.391Z,3.73
2018-08-04T10:47:53.511Z,2.90
2018-08-04T10:50:21.192Z,2.27
2018-08-04T10:52:48.882Z,2.30
2018-08-04T10:55:16.649Z,2.83
2018-08-04T10:57:44.336Z,2.47
2018-08-04T11:00:12.158Z,2.70
2018-08-04T11:02:39.966Z,3.20
2018-08-04T11:05:07.785Z,3.50
2018-08-04T11:07:36.128Z,4.10
2018-08-04T11:10:04.775Z,2.40
2018-08-04T11:12:32.563Z,3.30
2018-08-04T11:15:00.256Z,3.50
2018-08-04T11:17:27.893Z,2.87
2018-08-04T11:19:55.538Z,2.13
2018-08-04T11:22:23.237Z,3.37
2018-08-04T11:24:50.986Z,3.80
2018-08-04T11:27:18.638Z,2.20
2018-08-04T11:29:46.334Z,2.50
2018-08-04T11:32:14.062Z,2.40
2018-08-04T11:34:41.729Z,2.30
2018-08-04T11:37:09.329Z,2.23
2018-08-04T11:39:36.988Z,2.93
2018-08-04T11:42:04.794Z,2.80
2018-08-04T11:44:32.484Z,2.40
2018-08-04T11:47:00.058Z,2.70
2018-08-04T11:49:27.712Z,2.20
2018-08-04T11:51:55.336Z,5.43
2018-08-04T11:54:23.034Z,2.43
2018-08-04T11:56:50.610Z,2.70
2018-08-04T11:59:18.270Z,2.93
2018-08-04T12:01:46.045Z,2.43
2018-08-04T12:04:13.636Z,2.60
2018-08-04T12:06:41.416Z,2.40
2018-08-04T12:09:11.247Z,3.20
2018-08-04T12:11:38.933Z,2.40
2018-08-04T12:14:07.366Z,4.90
2018-08-04T12:16:35.046Z,3.17
2018-08-04T12:19:02.657Z,3.30
2018-08-04T12:21:31.217Z,3.27
2018-08-04T12:23:58.930Z,3.17
2018-08-04T12:26:27.046Z,2.33
2018-08-04T12:28:54.880Z,2.83
2018-08-04T12:31:22.683Z,3.40
2018-08-04T12:33:50.572Z,3.17
2018-08-04T12:36:18.503Z,4.70
2018-08-04T12:38:47.004Z,2.77
2018-08-04T12:41:14.662Z,3.93
2018-08-04T12:43:47.541Z,2.67
2018-08-04T12:46:32.736Z,3.03
2018-08-04T12:49:14.174Z,4.07
2018-08-04T12:51:58.677Z,3.77
2018-08-04T12:57:47.939Z,3.73
2018-08-04T13:00:16.095Z,4.93
2018-08-04T13:02:44.040Z,3.37
2018-08-04T13:05:12.043Z,2.77
2018-08-04T13:07:40.209Z,3.10
2018-08-04T13:10:08.817Z,2.87
2018-08-04T13:12:36.832Z,2.93
2018-08-04T13:15:05.633Z,3.13
2018-08-04T13:17:33.834Z,3.30
2018-08-04T13:20:01.619Z,4.53
2018-08-04T13:22:29.252Z,3.63
2018-08-04T13:24:57.764Z,3.50
2018-08-04T13:30:40.845Z,3.80
2018-08-04T13:33:08.947Z,2.73
2018-08-04T13:35:37.003Z,3.63
2018-08-04T13:38:05.035Z,4.27
2018-08-04T13:40:33.463Z,3.30
2018-08-04T13:43:01.337Z,6.53
2018-08-04T13:45:29.256Z,3.30
2018-08-04T13:47:57.824Z,3.50
2018-08-04T13:50:26.173Z,4.10
2018-08-04T13:52:53.976Z,4.63
2018-08-04T13:55:21.669Z,4.93
2018-08-04T13:57:49.892Z,3.73
2018-08-04T14:00:18.719Z,3.30
2018-08-04T14:02:46.875Z,3.53
2018-08-04T14:05:14.993Z,5.10
2018-08-04T14:07:44.310Z,3.23
2018-08-04T14:10:54.896Z,6.10
2018-08-04T14:13:23.000Z,3.33
2018-08-04T14:15:51.032Z,3.33
2018-08-04T14:18:19.015Z,3.20
2018-08-04T14:20:46.623Z,3.13
2018-08-04T14:23:14.288Z,4.67
2018-08-04T14:25:43.146Z,3.57
2018-08-04T14:28:10.922Z,3.50
2018-08-04T14:30:38.734Z,2.93
2018-08-04T14:33:06.298Z,3.40
2018-08-04T14:35:33.776Z,3.33
2018-08-04T14:38:01.304Z,3.40
2018-08-04T14:40:28.960Z,4.07
2018-08-04T14:42:56.609Z,3.27
2018-08-04T14:45:24.196Z,4.77
2018-08-04T14:47:51.655Z,3.37
2018-08-04T14:50:19.232Z,3.43
2018-08-04T14:52:47.144Z,3.03
2018-08-04T14:55:14.876Z,3.03
2018-08-04T14:57:43.489Z,4.17
2018-08-04T15:00:10.924Z,2.97
2018-08-04T15:02:38.646Z,3.17
2018-08-04T15:05:06.473Z,2.80
2018-08-04T15:07:33.995Z,3.47
2018-08-04T15:10:01.699Z,3.10
2018-08-04T15:12:29.392Z,4.17
2018-08-04T15:14:57.035Z,3.60
2018-08-04T15:17:24.791Z,3.90
2018-08-04T15:19:52.427Z,3.97
2018-08-04T15:22:20.013Z,3.73
2018-08-04T15:24:47.621Z,2.80
2018-08-04T15:27:15.383Z,2.73
2018-08-04T15:29:43.096Z,3.00
2018-08-04T15:32:11.028Z,3.00
2018-08-04T15:34:38.622Z,2.93
2018-08-04T15:37:06.253Z,2.73
2018-08-04T15:39:34.426Z,2.60
2018-08-04T15:42:02.072Z,2.33
2018-08-04T15:44:29.595Z,2.67
2018-08-04T15:46:58.267Z,3.80
2018-08-04T15:49:25.907Z,2.80
2018-08-04T15:51:53.617Z,2.80
2018-08-04T15:54:21.193Z,2.70
2018-08-04T15:56:48.792Z,3.10
2018-08-04T15:59:16.541Z,2.17
2018-08-04T16:01:44.763Z,3.17
2018-08-04T16:04:12.312Z,2.80
2018-08-04T16:06:39.736Z,2.77
2018-08-04T16:09:09.164Z,3.40
2018-08-04T16:11:36.719Z,2.70
2018-08-04T16:14:04.217Z,2.50
2018-08-04T16:16:31.783Z,2.43
2018-08-04T16:18:59.316Z,3.17
2018-08-04T16:21:27.157Z,2.30
2018-08-04T16:23:54.888Z,3.00
2018-08-04T16:26:22.430Z,3.60
2018-08-04T16:28:50.302Z,4.37
2018-08-04T16:31:17.763Z,2.20
2018-08-04T16:33:45.239Z,2.50
2018-08-04T16:36:12.735Z,2.60
2018-08-04T16:38:40.194Z,3.03
2018-08-04T16:41:07.635Z,2.57
2018-08-04T16:43:35.119Z,2.30
2018-08-04T16:46:02.631Z,2.57
2018-08-04T16:48:30.167Z,2.87
2018-08-04T16:50:57.914Z,2.30
2018-08-04T16:53:25.515Z,3.50
2018-08-04T16:55:53.167Z,2.50
2018-08-04T16:58:20.725Z,3.80
2018-08-04T17:00:48.612Z,2.53
2018-08-04T17:03:16.258Z,2.50
2018-08-04T17:05:44.697Z,2.30
2018-08-04T17:08:12.479Z,1.90
2018-08-04T17:10:40.013Z,3.10
2018-08-04T17:13:10.088Z,4.40
2018-08-04T17:15:37.640Z,2.13
2018-08-04T17:18:05.270Z,1.70
2018-08-04T17:20:35.678Z,2.60
2018-08-04T17:23:06.411Z,2.40
2018-08-04T17:25:34.011Z,3.27
2018-08-04T17:28:01.566Z,2.60
2018-08-04T17:30:29.113Z,3.07
2018-08-04T17:32:56.745Z,3.73
2018-08-04T17:35:24.473Z,3.00
2018-08-04T17:37:52.072Z,4.00
2018-08-04T17:40:19.574Z,1.87
2018-08-04T17:42:47.236Z,2.83
2018-08-04T17:45:14.756Z,2.00
2018-08-04T17:47:42.438Z,2.20
2018-08-04T17:50:09.952Z,2.60
2018-08-04T17:52:37.513Z,1.93
2018-08-04T17:55:05.057Z,2.63
2018-08-04T17:57:32.707Z,3.83
2018-08-04T18:00:00.512Z,2.50
2018-08-04T18:02:28.320Z,5.00
2018-08-04T18:04:56.197Z,1.93
2018-08-04T18:07:24.276Z,2.10
2018-08-04T18:09:52.362Z,1.70
2018-08-04T18:12:20.196Z,2.10
2018-08-04T18:14:47.853Z,2.27
2018-08-04T18:17:15.508Z,1.67
2018-08-04T18:19:43.001Z,2.33
2018-08-04T18:22:10.886Z,2.67
2018-08-04T18:24:38.760Z,2.43
2018-08-04T18:27:06.613Z,1.90
2018-08-04T18:29:34.498Z,3.37
2018-08-04T18:32:02.710Z,3.00
2018-08-04T18:34:30.557Z,2.03
2018-08-04T18:36:58.321Z,3.50
2018-08-04T18:39:25.906Z,2.70
2018-08-04T18:41:53.562Z,1.77
2018-08-04T18:44:21.236Z,2.43
2018-08-04T18:46:48.908Z,2.33
2018-08-04T18:49:16.546Z,2.17
2018-08-04T18:51:44.549Z,2.27
2018-08-04T18:54:12.404Z,2.27
2018-08-04T18:56:40.324Z,2.63
2018-08-04T18:59:08.632Z,2.50
2018-08-04T19:01:36.541Z,2.60
2018-08-04T19:04:04.552Z,3.07
2018-08-04T19:06:32.661Z,2.17
2018-08-04T19:09:00.129Z,10.20
2018-08-04T19:11:27.624Z,2.67
2018-08-04T19:13:55.101Z,3.13
2018-08-04T19:16:22.624Z,3.40
2018-08-04T19:18:50.052Z,2.40
2018-08-04T19:21:17.812Z,2.20
2018-08-04T19:23:45.470Z,3.13
2018-08-04T19:26:13.185Z,3.87
2018-08-04T19:28:40.962Z,2.87
2018-08-04T19:31:08.691Z,2.20
2018-08-04T19:33:36.544Z,1.70
2018-08-04T19:36:04.120Z,4.20
2018-08-04T19:38:32.023Z,3.40
2018-08-04T19:40:59.758Z,3.07
2018-08-04T19:43:27.478Z,3.77
2018-08-04T19:45:55.458Z,4.70
2018-08-04T19:48:26.971Z,2.30
2018-08-04T19:50:54.658Z,2.73
2018-08-04T19:53:22.231Z,2.13
2018-08-04T19:55:49.765Z,2.50
2018-08-04T19:58:18.252Z,2.63
2018-08-04T20:00:45.763Z,3.00
2018-08-04T20:03:13.267Z,2.53
2018-08-04T20:05:40.742Z,2.17
2018-08-04T20:08:08.589Z,3.50
2018-08-04T20:10:36.195Z,2.63
2018-08-04T20:13:03.930Z,4.47
2018-08-04T20:15:31.459Z,10.90
2018-08-04T20:17:59.003Z,6.50
2018-08-04T20:20:26.506Z,9.47
2018-08-04T20:22:54.195Z,3.80
2018-08-04T20:25:21.647Z,3.43
2018-08-04T20:27:49.141Z,6.87
2018-08-04T20:30:17.207Z,3.47
2018-08-04T20:32:44.950Z,2.63
2018-08-04T20:35:12.468Z,3.23
2018-08-04T20:37:40.025Z,3.03
2018-08-04T20:40:07.511Z,4.00
2018-08-04T20:42:35.060Z,4.27
2018-08-04T20:45:02.671Z,3.30
2018-08-04T20:47:30.125Z,3.13
2018-08-04T20:49:57.777Z,3.73
2018-08-04T20:52:25.340Z,4.60
2018-08-04T20:54:52.951Z,5.73
2018-08-04T20:57:20.436Z,5.17
2018-08-04T20:59:48.271Z,4.40
2018-08-04T21:02:16.604Z,3.93
2018-08-04T21:04:44.161Z,3.70
2018-08-04T21:07:11.604Z,3.98
2018-08-04T21:09:39.213Z,3.23
2018-08-04T21:12:06.804Z,6.70
2018-08-04T21:14:34.338Z,5.37
2018-08-04T21:17:04.367Z,3.63
2018-08-04T21:19:31.819Z,4.90
2018-08-04T21:21:59.268Z,4.20
2018-08-04T21:24:26.894Z,3.37
2018-08-04T21:26:55.370Z,3.00
2018-08-04T21:29:23.530Z,3.50
2018-08-04T21:31:51.035Z,4.57
2018-08-04T21:34:18.561Z,3.07
2018-08-04T21:36:46.133Z,3.80
2018-08-04T21:39:14.883Z,3.57
2018-08-04T21:41:43.147Z,3.63
2018-08-04T21:44:10.684Z,4.10
2018-08-04T21:46:42.219Z,3.50
2018-08-04T21:49:09.757Z,3.83
2018-08-04T21:51:37.917Z,6.00
2018-08-04T21:54:05.354Z,3.93
2018-08-04T21:56:33.382Z,3.70
2018-08-04T21:59:00.886Z,3.13
2018-08-04T22:01:28.569Z,3.87
2018-08-04T22:03:56.041Z,6.73
2018-08-04T22:06:31.871Z,3.27
2018-08-04T22:09:11.260Z,4.10
2018-08-04T22:11:38.738Z,4.13
2018-08-04T22:14:06.362Z,5.03
2018-08-04T22:16:33.831Z,6.27
2018-08-04T22:19:01.263Z,3.73
2018-08-04T22:21:28.912Z,3.50
2018-08-04T22:23:56.560Z,3.77
2018-08-04T22:26:24.120Z,3.60
2018-08-04T22:28:51.571Z,3.53
2018-08-04T22:31:19.307Z,3.57
2018-08-04T22:33:46.915Z,3.50
2018-08-04T22:36:14.323Z,5.63
2018-08-04T22:38:41.758Z,4.13
2018-08-04T22:41:09.390Z,4.83
2018-08-04T22:43:36.905Z,4.17
2018-08-04T22:46:08.821Z,4.10
2018-08-04T22:48:36.392Z,4.97
2018-08-04T22:51:03.844Z,4.40
2018-08-04T22:53:31.556Z,6.10
2018-08-04T22:55:59.054Z,5.00
2018-08-04T23:01:00.884Z,5.03
2018-08-04T23:03:28.477Z,4.93
2018-08-04T23:05:56.069Z,5.60
2018-08-04T23:08:23.511Z,7.00
2018-08-04T23:10:50.954Z,5.00
2018-08-04T23:13:18.465Z,5.00
2018-08-04T23:15:46.199Z,5.00
2018-08-04T23:18:13.772Z,6.00
2018-08-04T23:20:41.442Z,4.00
2018-08-04T23:23:10.183Z,4.00
2018-08-04T23:25:37.703Z,4.03
2018-08-04T23:28:05.344Z,5.27
2018-08-04T23:30:33.010Z,4.43
2018-08-04T23:33:00.817Z,4.50
2018-08-04T23:35:28.304Z,5.23
2018-08-04T23:37:56.028Z,5.27
2018-08-04T23:40:23.983Z,3.97
2018-08-04T23:42:51.499Z,4.57
2018-08-04T23:45:25.813Z,4.50
2018-08-04T23:47:53.478Z,3.93
2018-08-04T23:50:21.065Z,4.47
2018-08-04T23:52:48.808Z,4.90
2018-08-04T23:55:16.479Z,4.60
2018-08-04T23:57:44.061Z,5.10
